Time;durP1;ratioP1;P1;durP2;ratioP2;P2;SDS_P1;SDS_P2;PMS_P1;PMS_P2;Temp;Humidity;BMP_temperature;BMP_pressure;BME280_temperature;BME280_humidity;BME280_pressure;Samples;Min_cycle;Max_cycle;Signal;HPM_P1;HPM_P2
2021/12/17 00:07:26;;;;;;;24.40;7.17;;;;;;;;;;5012129;28;20204;-82
2021/12/17 00:09:55;;;;;;;37.33;10.23;;;;;;;;;;5013179;28;20197;-83
2021/12/17 00:12:25;;;;;;;24.57;8.97;;;;;;;;;;5011880;28;20248;-83
2021/12/17 00:14:53;;;;;;;33.07;10.50;;;;;;;;;;5027862;28;20228;-83
2021/12/17 00:17:26;;;;;;;35.17;9.80;;;;;;;;;;4995940;28;20194;-80
2021/12/17 00:49:08;;;;;;;29.00;6.87;;;;;;;;;;5028518;28;20174;-82
2021/12/17 00:52:18;;;;;;;21.77;5.60;;;;;;;;;;4995873;28;20622;-82
2021/12/17 00:54:35;;;;;;;21.67;6.37;;;;;;;;;;5002066;28;20226;-81
2021/12/17 00:57:13;;;;;;;14.87;4.80;;;;;;;;;;5012093;28;20541;-82
2021/12/17 00:59:44;;;;;;;12.30;3.47;;;;;;;;;;5011962;28;20190;-82
2021/12/17 01:02:14;;;;;;;28.13;5.53;;;;;;;;;;5028277;28;20182;-82
2021/12/17 01:04:45;;;;;;;13.37;5.10;;;;;;;;;;5013809;28;20182;-82
2021/12/17 01:07:13;;;;;;;22.73;5.20;;;;;;;;;;5015224;28;20557;-79
2021/12/17 01:09:41;;;;;;;13.10;4.03;;;;;;;;;;5031535;28;20555;-81
2021/12/17 01:12:09;;;;;;;17.37;4.63;;;;;;;;;;5015376;28;20240;-81
2021/12/17 01:14:43;;;;;;;17.50;5.50;;;;;;;;;;5015945;28;20582;-82
2021/12/17 01:17:29;;;;;;;17.00;4.27;;;;;;;;;;5029538;28;20194;-82
2021/12/17 01:25:48;;;;;;;12.23;3.87;;;;;;;;;;5031243;28;20237;-81
2021/12/17 01:42:44;;;;;;;13.70;4.33;;;;;;;;;;5029408;28;20181;-81
2021/12/17 01:45:11;;;;;;;15.90;4.33;;;;;;;;;;4998754;28;20197;-83
2021/12/17 01:47:39;;;;;;;23.33;4.57;;;;;;;;;;5014967;28;20193;-81
2021/12/17 02:00:53;;;;;;;15.20;4.40;;;;;;;;;;5030772;28;20192;-82
2021/12/17 02:03:21;;;;;;;16.27;5.57;;;;;;;;;;5031043;28;20182;-82
2021/12/17 02:05:49;;;;;;;12.30;3.57;;;;;;;;;;5014495;28;20201;-84
2021/12/17 02:08:17;;;;;;;14.73;4.73;;;;;;;;;;5030388;28;20228;-82
2021/12/17 02:32:48;;;;;;;18.77;6.07;;;;;;;;;;4991525;28;20677;-83
2021/12/17 02:37:57;;;;;;;17.57;4.70;;;;;;;;;;5015790;28;20539;-82
2021/12/17 02:46:24;;;;;;;19.63;5.10;;;;;;;;;;5030075;28;20178;-83
2021/12/17 02:48:52;;;;;;;19.30;5.03;;;;;;;;;;5030071;28;20192;-84
2021/12/17 02:51:22;;;;;;;18.83;4.83;;;;;;;;;;5029613;28;20197;-82
2021/12/17 02:53:50;;;;;;;19.60;3.87;;;;;;;;;;5013542;28;20197;-80
2021/12/17 02:56:17;;;;;;;8.33;2.83;;;;;;;;;;4997211;28;20219;-83
2021/12/17 02:58:47;;;;;;;11.77;3.77;;;;;;;;;;5013395;28;20201;-85
2021/12/17 03:01:15;;;;;;;11.47;3.73;;;;;;;;;;5030008;28;20174;-84
2021/12/17 03:03:44;;;;;;;23.87;4.53;;;;;;;;;;5013573;28;20208;-83
2021/12/17 03:06:15;;;;;;;16.03;4.87;;;;;;;;;;5013237;28;20220;-84
2021/12/17 03:08:46;;;;;;;13.57;4.03;;;;;;;;;;5013926;28;20236;-82
2021/12/17 03:11:15;;;;;;;20.47;4.07;;;;;;;;;;5013098;28;20722;-81
2021/12/17 03:13:44;;;;;;;17.97;5.40;;;;;;;;;;5029238;28;20221;-83
2021/12/17 03:23:25;;;;;;;20.20;4.37;;;;;;;;;;5027509;28;20316;-83
2021/12/17 03:24:28;;;;;;;15.93;3.60;;;;;;;;;;5028928;28;20713;-83
2021/12/17 03:26:56;;;;;;;8.83;3.13;;;;;;;;;;5012083;28;20197;-83
2021/12/17 03:29:25;;;;;;;5.17;2.73;;;;;;;;;;5029055;28;20208;-83
2021/12/17 03:32:00;;;;;;;23.20;4.30;;;;;;;;;;5014155;28;20579;-83
2021/12/17 03:34:27;;;;;;;11.57;3.43;;;;;;;;;;5012684;28;20185;-82
2021/12/17 03:36:57;;;;;;;19.33;3.57;;;;;;;;;;4996425;28;20207;-82
2021/12/17 03:39:31;;;;;;;13.93;3.30;;;;;;;;;;5013781;28;20252;-82
2021/12/17 03:42:00;;;;;;;8.23;3.17;;;;;;;;;;5028728;28;20332;-83
2021/12/17 03:44:35;;;;;;;11.87;3.93;;;;;;;;;;4997445;28;20181;-83
2021/12/17 03:47:04;;;;;;;22.50;3.60;;;;;;;;;;5029069;28;20198;-83
2021/12/17 03:49:45;;;;;;;10.40;2.70;;;;;;;;;;5029059;28;20616;-80
2021/12/17 03:52:16;;;;;;;8.93;2.60;;;;;;;;;;5013590;28;20208;-79
2021/12/17 03:54:46;;;;;;;23.23;3.60;;;;;;;;;;5013099;28;20194;-80
2021/12/17 03:57:18;;;;;;;7.97;2.80;;;;;;;;;;5012889;28;20193;-81
2021/12/17 03:59:49;;;;;;;16.33;2.87;;;;;;;;;;5013392;28;20182;-81
2021/12/17 04:02:21;;;;;;;8.27;3.30;;;;;;;;;;4996955;28;20178;-83
2021/12/17 04:04:50;;;;;;;19.07;4.87;;;;;;;;;;5012346;28;20194;-81
2021/12/17 04:07:31;;;;;;;13.73;3.33;;;;;;;;;;5013601;28;20616;-82
2021/12/17 04:10:30;;;;;;;6.30;2.47;;;;;;;;;;4985090;28;20205;-82
2021/12/17 04:13:13;;;;;;;12.43;3.30;;;;;;;;;;4996758;28;20185;-82
2021/12/17 04:15:43;;;;;;;7.77;2.73;;;;;;;;;;5013847;28;20205;-82
2021/12/17 04:18:11;;;;;;;14.80;3.37;;;;;;;;;;5012314;28;20259;-82
2021/12/17 04:20:38;;;;;;;6.53;2.60;;;;;;;;;;5012278;28;20202;-81
2021/12/17 04:23:06;;;;;;;31.83;3.33;;;;;;;;;;5028110;28;20193;-82
2021/12/17 04:25:34;;;;;;;8.97;2.77;;;;;;;;;;5028110;28;20205;-81
2021/12/17 04:28:03;;;;;;;15.00;5.00;;;;;;;;;;4996685;28;20213;-81
2021/12/17 04:30:32;;;;;;;18.77;3.87;;;;;;;;;;5011901;28;20197;-80
2021/12/17 04:33:00;;;;;;;13.80;3.83;;;;;;;;;;5011567;28;20243;-80
2021/12/17 04:35:29;;;;;;;12.83;2.53;;;;;;;;;;4995843;28;20304;-80
2021/12/17 04:38:03;;;;;;;18.17;3.53;;;;;;;;;;5013844;28;20613;-81
2021/12/17 04:40:31;;;;;;;9.87;2.83;;;;;;;;;;5032131;28;20582;-81
2021/12/17 04:45:38;;;;;;;7.30;1.93;;;;;;;;;;5032261;28;20882;-80
2021/12/17 04:59:13;;;;;;;12.07;3.03;;;;;;;;;;5017524;28;20188;-81
2021/12/17 05:01:41;;;;;;;14.00;2.67;;;;;;;;;;4999380;28;20680;-80
2021/12/17 05:04:09;;;;;;;10.30;1.60;;;;;;;;;;5031090;28;20189;-80
2021/12/17 05:06:37;;;;;;;13.27;2.97;;;;;;;;;;5046499;28;20220;-82
2021/12/17 05:09:12;;;;;;;17.47;3.63;;;;;;;;;;5046227;28;20221;-82
2021/12/17 05:19:49;;;;;;;14.47;3.20;;;;;;;;;;5019575;28;20224;-81
2021/12/17 05:22:18;;;;;;;15.53;2.80;;;;;;;;;;5033649;28;20348;-80
2021/12/17 05:24:46;;;;;;;14.57;4.50;;;;;;;;;;5030545;28;20225;-81
2021/12/17 05:27:13;;;;;;;9.23;2.93;;;;;;;;;;4998519;28;20275;-80
2021/12/17 05:29:53;;;;;;;10.53;3.87;;;;;;;;;;5038851;28;20225;-83
2021/12/17 05:32:21;;;;;;;10.50;3.80;;;;;;;;;;5017736;28;20229;-79
2021/12/17 05:34:51;;;;;;;11.83;3.07;;;;;;;;;;5050155;28;20579;-82
2021/12/17 05:37:19;;;;;;;9.80;3.20;;;;;;;;;;5033388;28;20212;-82
2021/12/17 05:39:46;;;;;;;9.10;3.00;;;;;;;;;;5033778;28;20726;-81
2021/12/17 05:42:14;;;;;;;18.43;3.67;;;;;;;;;;5017562;28;20266;-79
2021/12/17 05:44:52;;;;;;;12.80;3.73;;;;;;;;;;5034912;28;20224;-78
2021/12/17 05:47:20;;;;;;;8.97;2.93;;;;;;;;;;5017821;28;20247;-79
2021/12/17 05:49:47;;;;;;;11.50;3.70;;;;;;;;;;5033910;28;20228;-82
2021/12/17 05:52:14;;;;;;;15.10;3.23;;;;;;;;;;5000849;28;20228;-79
2021/12/17 05:54:42;;;;;;;15.37;3.90;;;;;;;;;;5017212;28;20239;-80
2021/12/17 05:57:09;;;;;;;9.73;2.80;;;;;;;;;;5017263;28;20228;-80
2021/12/17 05:59:40;;;;;;;10.27;3.60;;;;;;;;;;5033327;28;20294;-82
2021/12/17 06:02:11;;;;;;;9.70;3.27;;;;;;;;;;5016835;28;20275;-80
2021/12/17 06:04:45;;;;;;;15.50;4.07;;;;;;;;;;5019024;28;20220;-81
2021/12/17 06:07:25;;;;;;;18.30;4.07;;;;;;;;;;5016283;28;20224;-82
2021/12/17 06:09:58;;;;;;;22.50;5.17;;;;;;;;;;5000569;28;20232;-82
2021/12/17 06:12:30;;;;;;;10.80;2.70;;;;;;;;;;5034077;28;20243;-82
2021/12/17 06:14:58;;;;;;;16.30;3.20;;;;;;;;;;5016579;28;20229;-81
2021/12/17 06:17:26;;;;;;;13.87;3.50;;;;;;;;;;5033003;28;20225;-82
2021/12/17 06:19:54;;;;;;;11.87;2.93;;;;;;;;;;5049488;28;20584;-82
2021/12/17 06:22:22;;;;;;;12.23;3.47;;;;;;;;;;5034587;28;20196;-82
2021/12/17 06:24:53;;;;;;;10.93;3.53;;;;;;;;;;5017633;28;20613;-82
2021/12/17 06:27:23;;;;;;;20.50;3.93;;;;;;;;;;5049670;28;20224;-83
2021/12/17 06:29:52;;;;;;;21.40;5.20;;;;;;;;;;5016773;28;20197;-82
2021/12/17 06:32:19;;;;;;;13.60;3.83;;;;;;;;;;5034497;28;20200;-82
2021/12/17 06:34:47;;;;;;;12.63;3.93;;;;;;;;;;5032975;28;20189;-83
2021/12/17 06:37:16;;;;;;;22.93;4.83;;;;;;;;;;5033089;28;20236;-82
2021/12/17 06:39:45;;;;;;;20.83;4.07;;;;;;;;;;5049805;28;20200;-82
2021/12/17 06:42:15;;;;;;;14.13;3.53;;;;;;;;;;5033193;28;20197;-81
2021/12/17 06:44:45;;;;;;;21.87;3.87;;;;;;;;;;5016318;28;20238;-76
2021/12/17 06:58:51;;;;;;;11.53;3.40;;;;;;;;;;5033055;28;20231;-83
2021/12/17 07:07:47;;;;;;;14.60;3.17;;;;;;;;;;5033650;28;20181;-83
2021/12/17 07:18:04;;;;;;;14.60;3.77;;;;;;;;;;5049029;28;20177;-82
2021/12/17 07:34:11;;;;;;;19.70;4.33;;;;;;;;;;5016950;28;20173;-83
2021/12/17 07:36:55;;;;;;;11.73;3.60;;;;;;;;;;5017313;28;20204;-82
2021/12/17 07:39:26;;;;;;;15.57;4.73;;;;;;;;;;5018250;28;20520;-83
2021/12/17 07:42:05;;;;;;;10.53;2.77;;;;;;;;;;5017407;28;20268;-83
2021/12/17 07:44:35;;;;;;;19.47;4.80;;;;;;;;;;5032138;28;20658;-82
2021/12/17 07:47:26;;;;;;;13.57;3.60;;;;;;;;;;5029777;28;20212;-83
2021/12/17 07:50:14;;;;;;;11.37;4.23;;;;;;;;;;5042121;28;20299;-82
2021/12/17 07:52:56;;;;;;;13.47;3.83;;;;;;;;;;5046351;28;20185;-82
2021/12/17 07:55:25;;;;;;;14.33;3.73;;;;;;;;;;5032014;28;20193;-84
2021/12/17 07:57:53;;;;;;;9.27;2.93;;;;;;;;;;5016331;28;20196;-83
2021/12/17 08:00:28;;;;;;;6.40;2.73;;;;;;;;;;5031792;28;20191;-83
2021/12/17 08:03:01;;;;;;;15.07;4.13;;;;;;;;;;5015978;28;20177;-83
2021/12/17 08:05:57;;;;;;;26.70;5.50;;;;;;;;;;5036199;28;20204;-83
2021/12/17 08:08:27;;;;;;;15.37;4.13;;;;;;;;;;5016011;28;20539;-83
2021/12/17 08:11:18;;;;;;;14.13;4.33;;;;;;;;;;5031233;28;20312;-83
2021/12/17 08:13:47;;;;;;;21.57;6.53;;;;;;;;;;5031242;28;20206;-82
2021/12/17 08:32:08;;;;;;;29.90;7.70;;;;;;;;;;5048455;28;20174;-83
2021/12/17 08:34:48;;;;;;;30.73;7.23;;;;;;;;;;5031214;28;20539;-83
2021/12/17 08:37:17;;;;;;;30.33;9.03;;;;;;;;;;5015482;28;20212;-83
2021/12/17 08:39:47;;;;;;;26.47;7.00;;;;;;;;;;5015508;28;20272;-83
2021/12/17 08:42:28;;;;;;;28.90;6.87;;;;;;;;;;5031725;28;20177;-82
2021/12/17 08:44:58;;;;;;;25.63;5.73;;;;;;;;;;5015009;28;20188;-83
2021/12/17 08:47:40;;;;;;;25.40;6.93;;;;;;;;;;5031665;28;20539;-83
2021/12/17 08:50:12;;;;;;;20.83;6.90;;;;;;;;;;5015730;28;20188;-83
2021/12/17 08:52:41;;;;;;;18.40;5.73;;;;;;;;;;5015283;28;20189;-82
2021/12/17 08:55:10;;;;;;;12.13;3.23;;;;;;;;;;5031670;28;20208;-81
2021/12/17 08:57:40;;;;;;;22.90;5.97;;;;;;;;;;5015364;28;20201;-83
2021/12/17 09:00:11;;;;;;;17.50;6.27;;;;;;;;;;5031316;28;20181;-83
2021/12/17 09:02:51;;;;;;;15.57;5.47;;;;;;;;;;5016258;28;20588;-83
2021/12/17 09:05:35;;;;;;;18.43;6.10;;;;;;;;;;5031567;28;20631;-83
2021/12/17 09:08:04;;;;;;;14.77;4.10;;;;;;;;;;5015570;28;20181;-84
2021/12/17 09:10:59;;;;;;;18.20;4.03;;;;;;;;;;5017337;28;20764;-83
2021/12/17 09:13:43;;;;;;;20.30;4.10;;;;;;;;;;5017023;28;20200;-80
2021/12/17 09:16:13;;;;;;;16.40;3.93;;;;;;;;;;5015412;28;20220;-83
2021/12/17 09:18:42;;;;;;;16.30;4.50;;;;;;;;;;5015134;28;20754;-82
2021/12/17 09:21:19;;;;;;;18.47;4.63;;;;;;;;;;5016481;28;20603;-82
2021/12/17 09:24:13;;;;;;;17.80;4.73;;;;;;;;;;5031726;28;20205;-82
2021/12/17 09:26:55;;;;;;;12.63;4.53;;;;;;;;;;5034565;28;20188;-83
2021/12/17 09:29:28;;;;;;;13.23;4.50;;;;;;;;;;5019141;28;20631;-83
2021/12/17 09:31:56;;;;;;;19.93;4.87;;;;;;;;;;5034639;28;20201;-83
2021/12/17 09:34:24;;;;;;;17.77;8.10;;;;;;;;;;5034313;28;20754;-83
2021/12/17 09:36:52;;;;;;;12.57;4.33;;;;;;;;;;5018074;28;20674;-82
2021/12/17 09:39:19;;;;;;;35.00;11.07;;;;;;;;;;5034641;28;20219;-83
2021/12/17 09:41:50;;;;;;;20.67;4.53;;;;;;;;;;5018000;28;20235;-83
2021/12/17 09:44:18;;;;;;;15.80;4.63;;;;;;;;;;5018584;28;20680;-83
2021/12/17 09:46:47;;;;;;;15.97;3.20;;;;;;;;;;5034491;28;20204;-83
2021/12/17 09:49:17;;;;;;;18.93;4.47;;;;;;;;;;5018215;28;20197;-84
2021/12/17 09:51:46;;;;;;;10.33;3.37;;;;;;;;;;5034351;28;20185;-83
2021/12/17 09:54:15;;;;;;;18.77;4.73;;;;;;;;;;5050788;28;20192;-82
2021/12/17 09:56:43;;;;;;;7.03;3.50;;;;;;;;;;5033944;28;20208;-83
2021/12/17 09:59:12;;;;;;;13.83;3.80;;;;;;;;;;5050660;28;20190;-84
2021/12/17 10:01:42;;;;;;;10.47;3.63;;;;;;;;;;5001863;28;20196;-83
2021/12/17 10:04:13;;;;;;;14.93;6.10;;;;;;;;;;5017989;28;20200;-83
2021/12/17 10:06:42;;;;;;;11.90;3.50;;;;;;;;;;5034049;28;20235;-83
2021/12/17 10:09:09;;;;;;;9.93;4.20;;;;;;;;;;5034067;28;20189;-82
2021/12/17 10:11:37;;;;;;;18.87;5.20;;;;;;;;;;5033651;28;20240;-83
2021/12/17 10:14:24;;;;;;;16.43;6.00;;;;;;;;;;5033860;28;20192;-83
2021/12/17 10:17:05;;;;;;;18.77;6.57;;;;;;;;;;5033444;28;20254;-83
2021/12/17 10:19:50;;;;;;;22.07;7.40;;;;;;;;;;5050163;28;20183;-83
2021/12/17 10:22:19;;;;;;;17.47;5.50;;;;;;;;;;5017566;28;20227;-83
2021/12/17 10:25:15;;;;;;;15.43;3.10;;;;;;;;;;5033296;28;20546;-83
2021/12/17 10:27:43;;;;;;;21.23;5.30;;;;;;;;;;5025859;28;20216;-75
2021/12/17 10:30:19;;;;;;;11.93;4.70;;;;;;;;;;5033459;28;20251;-84
2021/12/17 10:32:53;;;;;;;15.10;4.50;;;;;;;;;;5033167;28;20642;-83
2021/12/17 10:35:26;;;;;;;10.03;4.40;;;;;;;;;;5049766;28;20181;-82
2021/12/17 10:37:57;;;;;;;9.27;3.47;;;;;;;;;;5017148;28;20706;-82
2021/12/17 10:40:36;;;;;;;14.67;4.60;;;;;;;;;;5033588;28;20627;-84
2021/12/17 10:43:17;;;;;;;9.07;3.57;;;;;;;;;;5034112;28;20185;-84
2021/12/17 10:46:00;;;;;;;10.77;3.27;;;;;;;;;;5033460;28;20181;-83
2021/12/17 10:48:33;;;;;;;12.90;4.77;;;;;;;;;;5033325;28;20181;-84
2021/12/17 10:51:07;;;;;;;14.40;3.67;;;;;;;;;;5033241;28;20177;-83
2021/12/17 10:53:35;;;;;;;14.57;3.93;;;;;;;;;;5032877;28;20209;-83
2021/12/17 10:56:02;;;;;;;8.43;3.33;;;;;;;;;;5032885;28;20193;-83
2021/12/17 10:58:30;;;;;;;8.43;3.87;;;;;;;;;;5049221;28;20279;-83
2021/12/17 11:01:02;;;;;;;9.13;4.00;;;;;;;;;;5032899;28;20203;-83
2021/12/17 11:03:29;;;;;;;5.27;3.20;;;;;;;;;;5049500;28;20177;-83
2021/12/17 11:05:57;;;;;;;10.63;3.60;;;;;;;;;;5032717;28;20207;-83
2021/12/17 11:08:33;;;;;;;6.53;2.10;;;;;;;;;;5032619;28;20196;-84
2021/12/17 11:11:12;;;;;;;10.40;3.13;;;;;;;;;;5032290;28;20602;-83
2021/12/17 11:13:58;;;;;;;9.50;3.27;;;;;;;;;;5017958;28;20189;-83
2021/12/17 11:16:29;;;;;;;14.67;3.90;;;;;;;;;;5032513;28;20662;-83
2021/12/17 11:18:56;;;;;;;12.27;4.47;;;;;;;;;;5032387;28;20235;-82
2021/12/17 11:21:24;;;;;;;4.73;3.03;;;;;;;;;;5016211;28;20606;-83
2021/12/17 11:23:52;;;;;;;8.90;4.27;;;;;;;;;;5032298;28;20193;-82
2021/12/17 11:26:20;;;;;;;10.70;4.07;;;;;;;;;;5032227;28;20204;-83
2021/12/17 11:28:47;;;;;;;13.87;3.40;;;;;;;;;;5032414;28;20201;-83
2021/12/17 11:31:14;;;;;;;10.50;3.77;;;;;;;;;;5032481;28;20203;-83
2021/12/17 11:33:43;;;;;;;7.33;2.77;;;;;;;;;;5033742;28;20193;-83
2021/12/17 11:36:10;;;;;;;11.10;3.43;;;;;;;;;;5033285;28;20676;-83
2021/12/17 11:38:42;;;;;;;12.23;3.13;;;;;;;;;;5016105;28;20199;-84
2021/12/17 11:41:39;;;;;;;9.23;4.20;;;;;;;;;;5033126;28;20216;-83
2021/12/17 11:44:08;;;;;;;7.07;2.70;;;;;;;;;;5015698;28;20180;-83
2021/12/17 11:46:36;;;;;;;4.57;2.93;;;;;;;;;;5032336;28;20193;-83
2021/12/17 11:49:13;;;;;;;10.83;3.87;;;;;;;;;;5046078;28;20231;-85
2021/12/17 11:51:41;;;;;;;6.00;2.53;;;;;;;;;;5033140;28;20672;-83
2021/12/17 11:54:11;;;;;;;10.97;3.33;;;;;;;;;;5031860;28;20199;-83
2021/12/17 11:56:47;;;;;;;14.60;4.13;;;;;;;;;;5048711;28;20220;-84
2021/12/17 11:59:28;;;;;;;5.70;2.50;;;;;;;;;;5032172;28;20181;-83
2021/12/17 12:02:11;;;;;;;6.50;2.40;;;;;;;;;;5033289;28;20172;-82
2021/12/17 12:04:42;;;;;;;15.00;4.27;;;;;;;;;;5016573;28;20191;-83
2021/12/17 12:07:15;;;;;;;12.07;3.63;;;;;;;;;;5032566;28;20188;-83
2021/12/17 12:09:56;;;;;;;7.20;3.60;;;;;;;;;;5033321;28;20623;-76
2021/12/17 12:12:37;;;;;;;11.80;3.63;;;;;;;;;;5048465;28;20238;-82
2021/12/17 12:15:28;;;;;;;17.13;3.70;;;;;;;;;;5032830;28;20177;-83
2021/12/17 12:18:02;;;;;;;10.30;3.73;;;;;;;;;;5031591;28;20295;-83
2021/12/17 12:20:51;;;;;;;9.57;3.33;;;;;;;;;;5032566;28;20200;-82
2021/12/17 12:23:21;;;;;;;6.77;2.87;;;;;;;;;;5035525;28;20197;-82
2021/12/17 12:26:14;;;;;;;5.03;2.37;;;;;;;;;;5031909;28;20193;-82
2021/12/17 12:28:44;;;;;;;11.63;3.83;;;;;;;;;;5047427;28;20196;-82
2021/12/17 12:31:34;;;;;;;15.13;4.03;;;;;;;;;;5032820;28;20229;-82
2021/12/17 12:34:05;;;;;;;10.53;4.80;;;;;;;;;;5034699;28;20177;-82
2021/12/17 12:36:57;;;;;;;12.07;3.20;;;;;;;;;;5032766;28;20204;-82
2021/12/17 12:39:27;;;;;;;11.37;4.50;;;;;;;;;;5031965;28;20181;-83
2021/12/17 12:42:11;;;;;;;10.13;4.10;;;;;;;;;;5047726;28;20192;-83
2021/12/17 12:44:41;;;;;;;14.50;4.27;;;;;;;;;;5015599;28;20183;-83
2021/12/17 12:47:19;;;;;;;13.47;4.50;;;;;;;;;;5047854;28;20578;-82
2021/12/17 12:50:11;;;;;;;8.00;3.60;;;;;;;;;;5032360;28;20542;-83
2021/12/17 12:52:51;;;;;;;12.07;4.43;;;;;;;;;;5015705;28;20193;-82
2021/12/17 12:55:43;;;;;;;7.37;3.80;;;;;;;;;;5031612;28;20181;-82
2021/12/17 12:58:17;;;;;;;16.47;3.77;;;;;;;;;;5008021;28;20664;-82
2021/12/17 13:00:58;;;;;;;12.70;3.80;;;;;;;;;;5018709;28;20192;-85
2021/12/17 13:03:29;;;;;;;6.60;2.83;;;;;;;;;;5052100;28;20176;-83
2021/12/17 13:05:59;;;;;;;10.50;3.77;;;;;;;;;;5019286;28;20173;-83
2021/12/17 13:08:30;;;;;;;15.60;4.50;;;;;;;;;;5051702;28;20189;-84
2021/12/17 13:11:00;;;;;;;9.03;3.47;;;;;;;;;;5018965;28;20323;-83
2021/12/17 13:13:40;;;;;;;12.87;2.70;;;;;;;;;;5019559;28;20177;-83
2021/12/17 13:16:34;;;;;;;13.20;3.57;;;;;;;;;;5019449;28;20259;-81
2021/12/17 13:21:58;;;;;;;12.60;4.10;;;;;;;;;;5050014;28;20181;-83
2021/12/17 13:24:29;;;;;;;14.20;3.67;;;;;;;;;;5034950;28;20177;-83
2021/12/17 13:26:57;;;;;;;12.43;3.73;;;;;;;;;;5036298;28;20181;-83
2021/12/17 13:29:31;;;;;;;15.73;3.33;;;;;;;;;;5034640;28;20284;-85
2021/12/17 13:32:01;;;;;;;10.37;4.03;;;;;;;;;;5019021;28;20641;-83
2021/12/17 13:34:59;;;;;;;13.17;4.17;;;;;;;;;;5036355;28;20224;-82
2021/12/17 13:37:30;;;;;;;10.50;3.80;;;;;;;;;;5018823;28;20638;-83
2021/12/17 13:40:00;;;;;;;9.93;3.80;;;;;;;;;;5022530;28;20729;-83
2021/12/17 13:42:28;;;;;;;17.40;4.40;;;;;;;;;;5034241;28;20220;-81
2021/12/17 13:44:57;;;;;;;8.47;3.30;;;;;;;;;;5035061;28;20753;-82
2021/12/17 13:47:40;;;;;;;11.27;4.03;;;;;;;;;;5017239;28;20690;-78
2021/12/17 13:50:11;;;;;;;9.93;3.93;;;;;;;;;;5026331;28;20232;-76
2021/12/17 13:52:54;;;;;;;12.57;4.23;;;;;;;;;;5003702;28;20302;-76
2021/12/17 13:55:28;;;;;;;9.83;3.70;;;;;;;;;;5013611;28;20221;-77
2021/12/17 13:57:57;;;;;;;9.30;3.97;;;;;;;;;;5027815;28;20236;-78
2021/12/17 14:00:36;;;;;;;14.47;5.17;;;;;;;;;;5033771;28;20387;-77
2021/12/17 14:03:11;;;;;;;10.90;3.77;;;;;;;;;;5017330;28;20322;-79
2021/12/17 14:05:49;;;;;;;6.47;4.53;;;;;;;;;;5017913;28;20220;-79
2021/12/17 14:08:21;;;;;;;8.27;4.63;;;;;;;;;;5032708;28;20220;-79
2021/12/17 14:10:51;;;;;;;11.47;4.53;;;;;;;;;;5032550;28;20227;-80
2021/12/17 14:13:25;;;;;;;15.43;5.93;;;;;;;;;;5033699;28;20678;-80
2021/12/17 14:16:03;;;;;;;8.90;4.47;;;;;;;;;;5019116;28;20221;-79
2021/12/17 14:18:31;;;;;;;9.73;5.30;;;;;;;;;;5000464;28;20236;-79
2021/12/17 14:21:04;;;;;;;9.77;5.03;;;;;;;;;;5017071;28;20224;-77
2021/12/17 14:23:33;;;;;;;10.67;5.13;;;;;;;;;;5028972;28;20227;-79
2021/12/17 14:26:04;;;;;;;10.50;3.93;;;;;;;;;;4997610;28;20232;-79
2021/12/17 14:28:40;;;;;;;6.37;4.03;;;;;;;;;;5013193;28;20220;-79
2021/12/17 14:31:12;;;;;;;8.23;3.17;;;;;;;;;;5029148;28;20304;-77
2021/12/17 14:33:42;;;;;;;10.27;4.03;;;;;;;;;;4997406;28;20214;-80
2021/12/17 14:36:12;;;;;;;5.87;3.03;;;;;;;;;;5030186;28;20221;-79
2021/12/17 14:39:01;;;;;;;10.27;4.43;;;;;;;;;;5012612;28;20308;-82
2021/12/17 14:41:46;;;;;;;7.37;3.60;;;;;;;;;;5028044;28;20230;-84
2021/12/17 14:44:34;;;;;;;7.23;3.03;;;;;;;;;;5027884;28;20229;-76
2021/12/17 14:47:30;;;;;;;10.67;3.80;;;;;;;;;;5027524;28;20313;-80
2021/12/17 15:03:40;;;;;;;12.50;3.83;;;;;;;;;;5049100;28;20232;-81
2021/12/17 15:06:10;;;;;;;12.93;5.57;;;;;;;;;;5032255;28;20260;-80
2021/12/17 15:08:39;;;;;;;12.53;4.83;;;;;;;;;;5032444;28;20225;-83
2021/12/17 15:11:15;;;;;;;10.67;3.00;;;;;;;;;;5032262;28;20228;-79
2021/12/17 15:13:46;;;;;;;11.33;5.10;;;;;;;;;;5015798;28;20225;-78
2021/12/17 15:16:13;;;;;;;5.43;2.47;;;;;;;;;;5015762;28;20231;-79
2021/12/17 15:18:42;;;;;;;8.43;3.27;;;;;;;;;;5031980;28;20973;-79
2021/12/17 15:21:10;;;;;;;6.47;3.00;;;;;;;;;;5031922;28;20388;-79
2021/12/17 15:23:38;;;;;;;6.87;3.53;;;;;;;;;;5015086;28;20217;-80
2021/12/17 15:26:09;;;;;;;7.10;2.50;;;;;;;;;;5015604;28;20216;-80
2021/12/17 15:28:36;;;;;;;4.47;2.40;;;;;;;;;;5048204;28;20303;-80
2021/12/17 15:31:06;;;;;;;3.77;1.53;;;;;;;;;;5031810;28;20311;-76
2021/12/17 15:33:34;;;;;;;1.20;1.07;;;;;;;;;;5048028;28;20282;-79
2021/12/17 15:36:02;;;;;;;3.10;1.43;;;;;;;;;;5047925;28;20221;-78
2021/12/17 15:38:29;;;;;;;2.70;1.37;;;;;;;;;;5046575;28;20258;-78
2021/12/17 15:40:58;;;;;;;1.90;1.30;;;;;;;;;;5031726;28;20225;-78
2021/12/17 15:43:25;;;;;;;1.57;1.23;;;;;;;;;;5015424;28;20212;-79
2021/12/17 15:45:53;;;;;;;1.87;1.13;;;;;;;;;;5015818;28;20220;-79
2021/12/17 15:48:22;;;;;;;3.57;0.93;;;;;;;;;;5015274;28;20270;-79
2021/12/17 15:51:06;;;;;;;8.50;1.90;;;;;;;;;;5016547;28;20628;-81
2021/12/17 15:53:34;;;;;;;5.27;1.77;;;;;;;;;;5015439;28;20225;-80
2021/12/17 15:56:02;;;;;;;2.20;1.33;;;;;;;;;;5031586;28;20221;-77
2021/12/17 15:58:30;;;;;;;2.90;1.40;;;;;;;;;;5015265;28;20229;-79
2021/12/17 16:00:57;;;;;;;3.37;1.53;;;;;;;;;;4999180;28;20217;-79
2021/12/17 16:03:32;;;;;;;6.50;2.00;;;;;;;;;;5031315;28;20230;-78
2021/12/17 16:06:01;;;;;;;2.47;1.47;;;;;;;;;;5015452;28;20307;-79
2021/12/17 16:08:29;;;;;;;3.43;1.70;;;;;;;;;;5014898;28;20694;-77
2021/12/17 16:21:40;;;;;;;7.10;1.80;;;;;;;;;;5031009;28;20764;-79
2021/12/17 16:24:08;;;;;;;4.60;1.93;;;;;;;;;;5047389;28;20220;-79
2021/12/17 16:26:38;;;;;;;4.73;2.37;;;;;;;;;;5016068;28;20221;-78
2021/12/17 16:29:08;;;;;;;4.30;2.03;;;;;;;;;;5015189;28;20252;-78
2021/12/17 16:31:36;;;;;;;3.33;1.80;;;;;;;;;;5015036;28;20698;-78
2021/12/17 16:34:04;;;;;;;5.93;1.80;;;;;;;;;;5032369;28;20733;-77
2021/12/17 16:36:33;;;;;;;2.77;1.40;;;;;;;;;;5051348;28;20255;-77
2021/12/17 16:39:10;;;;;;;5.43;2.40;;;;;;;;;;5019390;28;20228;-79
2021/12/17 16:41:38;;;;;;;6.50;1.90;;;;;;;;;;5051732;28;20299;-77
2021/12/17 16:44:10;;;;;;;5.37;2.23;;;;;;;;;;5035314;28;20224;-79
2021/12/17 16:49:17;;;;;;;3.50;1.87;;;;;;;;;;5018903;28;20254;-79
2021/12/17 16:51:45;;;;;;;5.83;2.20;;;;;;;;;;5034945;28;20239;-76
2021/12/17 16:54:14;;;;;;;10.57;3.13;;;;;;;;;;5001009;28;20271;-77
2021/12/17 16:56:42;;;;;;;4.23;2.17;;;;;;;;;;5015559;28;20784;-76
2021/12/17 16:59:09;;;;;;;6.97;2.37;;;;;;;;;;5015754;28;20323;-79
2021/12/17 17:01:39;;;;;;;2.90;1.43;;;;;;;;;;5031939;28;20223;-79
2021/12/17 17:04:11;;;;;;;2.60;1.60;;;;;;;;;;5015064;28;20295;-79
2021/12/17 17:06:39;;;;;;;6.07;2.80;;;;;;;;;;4999334;28;20224;-79
2021/12/17 17:09:10;;;;;;;4.53;1.50;;;;;;;;;;5031527;28;20221;-80
2021/12/17 17:11:39;;;;;;;5.60;1.27;;;;;;;;;;4991497;28;20240;-79
2021/12/17 17:14:07;;;;;;;1.13;0.77;;;;;;;;;;5034299;28;20588;-80
2021/12/17 17:16:36;;;;;;;3.83;1.43;;;;;;;;;;5051071;28;20303;-80
2021/12/17 17:19:04;;;;;;;4.70;1.60;;;;;;;;;;5018830;28;20232;-80
2021/12/17 17:21:31;;;;;;;4.23;1.37;;;;;;;;;;5034460;28;20271;-79
2021/12/17 17:24:02;;;;;;;1.43;1.23;;;;;;;;;;5051212;28;20220;-77
2021/12/17 17:26:31;;;;;;;1.60;1.07;;;;;;;;;;5018338;28;20718;-80
2021/12/17 17:28:59;;;;;;;8.10;1.73;;;;;;;;;;5051198;28;20366;-79
2021/12/17 17:31:30;;;;;;;7.33;1.30;;;;;;;;;;5017879;28;20236;-77
2021/12/17 17:33:59;;;;;;;4.57;1.33;;;;;;;;;;5050299;28;20230;-76
2021/12/17 17:36:33;;;;;;;9.70;2.33;;;;;;;;;;5018291;28;20224;-77
2021/12/17 17:39:00;;;;;;;10.67;2.20;;;;;;;;;;5033605;28;20229;-77
2021/12/17 17:41:30;;;;;;;3.97;1.30;;;;;;;;;;5034664;28;20590;-77
2021/12/17 17:43:58;;;;;;;2.47;1.50;;;;;;;;;;5050541;28;20225;-77
2021/12/17 17:46:27;;;;;;;9.43;1.97;;;;;;;;;;5049097;28;20231;-78
2021/12/17 17:48:55;;;;;;;5.13;1.70;;;;;;;;;;5033832;28;20212;-79
2021/12/17 17:51:23;;;;;;;3.93;1.63;;;;;;;;;;5033187;28;20225;-78
2021/12/17 17:53:54;;;;;;;2.03;1.27;;;;;;;;;;5049977;28;20274;-79
2021/12/17 17:56:22;;;;;;;4.97;1.90;;;;;;;;;;5017732;28;20235;-80
2021/12/17 17:58:53;;;;;;;3.90;1.40;;;;;;;;;;5017331;28;20236;-76
2021/12/17 18:01:21;;;;;;;4.43;1.67;;;;;;;;;;5049833;28;20221;-77
2021/12/17 18:03:48;;;;;;;2.87;1.50;;;;;;;;;;5050170;28;20248;-79
2021/12/17 18:06:16;;;;;;;2.83;1.67;;;;;;;;;;5016349;28;20593;-79
2021/12/17 18:08:44;;;;;;;2.47;1.73;;;;;;;;;;5049446;28;20228;-77
2021/12/17 18:11:11;;;;;;;5.97;2.23;;;;;;;;;;5020552;28;20327;-79
2021/12/17 18:13:42;;;;;;;6.13;1.90;;;;;;;;;;5069776;28;20230;-78
2021/12/17 18:16:09;;;;;;;3.23;1.20;;;;;;;;;;5037319;28;20681;-78
2021/12/17 18:18:36;;;;;;;2.13;1.50;;;;;;;;;;5086740;28;20231;-76
2021/12/17 18:21:04;;;;;;;0.97;0.83;;;;;;;;;;5054793;28;20235;-81
2021/12/17 18:23:32;;;;;;;4.07;1.73;;;;;;;;;;5036520;28;20264;-81
2021/12/17 18:25:59;;;;;;;5.33;2.70;;;;;;;;;;5036811;28;20220;-81
2021/12/17 18:28:27;;;;;;;5.43;1.53;;;;;;;;;;5053172;28;20231;-81
2021/12/17 18:30:56;;;;;;;3.67;1.50;;;;;;;;;;5067018;28;20220;-84
2021/12/17 18:33:23;;;;;;;6.90;2.17;;;;;;;;;;5051523;28;20303;-84
2021/12/17 18:35:53;;;;;;;3.53;1.87;;;;;;;;;;5051497;28;20274;-80